Aérodrome :
LOGIN :

S'inscrire | Disclaimer

   EN    FR    IT 

 










Légende :    VFR   VFR Marginal   IFR   IFR Intensif   IFR Très Intensif
Visi : 
Plafond : 
>= 8 km
>= 3000ft
5 à 8 km
1000 à 3000 ft
1500m à 5 km
500 à 1000 ft
800 à 1500m
200 à 500 ft
< 800m
< 200 ft
Symboles :   Orages  Brouillard  Fortes neiges  Fortes précipitations  Vent > 20 kt
SIGMETs :   Divers  Orages  Givrage  Turbulence  Onde Orograph.  Cendres Volcan.







- Altitude de l'aérodrome : 796 ft
- Code IATA : SYT
- Voir les cartes d'approche


LFLN - Saint-Yan

DERNIER METAR :
  • 192000Z AUTO 15004KT CAVOK 16/08 Q1012 NOSIG

METARs EXPIRÉS :
  • 191930Z AUTO 13004KT 090V200 CAVOK 15/08 Q1012 NOSIG
  • 191900Z AUTO 12002KT CAVOK 15/07 Q1012 NOSIG
  • 191830Z AUTO 11002KT CAVOK 16/07 Q1012 NOSIG
  • 191800Z AUTO VRB02KT CAVOK 16/08 Q1012 NOSIG
  • 191730Z AUTO 14003KT CAVOK 17/07 Q1011 NOSIG

TAF TAF LFLN
Valide du 19 à 18h jusqu'au 20 à 03h UTC


191700Z 1918/2003 17006KT CAVOK
PROB30
TEMPO 2000/2003 -RA NSC
Pas de NOTAMs connus pour ce terrain.
1 SIGMET publié pour la FIR Marseille (LFMM) :
 
Orages noyés dans la masse
LFMM SIGMET 14 VALID 191900/192100 LFPW
LFMM MARSEILLE FIR/UIR EMBD TS OBS WI N3900 E00700 - N3900 E00430 - N4200 E00430 - N4215 E00230 - N4345 E00245 - N4345 E00300 - N4115 E00600 TOP FL370 STNR NC=



MET'MAP, la Météo Aéronautique d'un coup d'oeil ! - Copyright ORBIFLY Décembre 2007 - Disclaimer

ORBIFLY MET'MAP TEAM :

Programmation & Développement : Alexandra Zaïnal
Conception & Développement : Baudouin d'Aumeries
Co-Programmation & Développement : Marc-Olivier Méhu
Soutien technique & logistique : Manuel Goepfert

Contact : metmap@orbifly.com




SOURCES & CREDITS :

   NOAA